sensor_id;sensor_type;location;lat;lon;timestamp;P1;durP1;ratioP1;P2;durP2;ratioP2
39264;SDS011;42646;51.910;7.724;2022-08-19T00:01:37;5.43;;;4.10;;
39264;SDS011;42646;51.910;7.724;2022-08-19T00:04:07;5.60;;;4.35;;
39264;SDS011;42646;51.910;7.724;2022-08-19T00:06:39;5.78;;;4.38;;
39264;SDS011;42646;51.910;7.724;2022-08-19T00:11:39;5.97;;;4.60;;
39264;SDS011;42646;51.910;7.724;2022-08-19T00:14:07;6.00;;;4.40;;
39264;SDS011;42646;51.910;7.724;2022-08-19T00:16:37;5.85;;;4.47;;
39264;SDS011;42646;51.910;7.724;2022-08-19T00:19:07;6.15;;;4.40;;
39264;SDS011;42646;51.910;7.724;2022-08-19T00:21:34;5.20;;;4.35;;
39264;SDS011;42646;51.910;7.724;2022-08-19T00:24:06;5.72;;;4.65;;
39264;SDS011;42646;51.910;7.724;2022-08-19T00:26:35;5.80;;;4.50;;
39264;SDS011;42646;51.910;7.724;2022-08-19T00:29:04;5.30;;;4.30;;
39264;SDS011;42646;51.910;7.724;2022-08-19T00:31:32;5.07;;;4.45;;
39264;SDS011;42646;51.910;7.724;2022-08-19T00:34:00;5.63;;;4.22;;
39264;SDS011;42646;51.910;7.724;2022-08-19T00:36:29;5.97;;;4.75;;
39264;SDS011;42646;51.910;7.724;2022-08-19T00:38:58;5.63;;;4.20;;
39264;SDS011;42646;51.910;7.724;2022-08-19T00:41:28;5.15;;;4.35;;
39264;SDS011;42646;51.910;7.724;2022-08-19T00:43:57;6.43;;;5.00;;
39264;SDS011;42646;51.910;7.724;2022-08-19T00:46:28;6.55;;;4.50;;
39264;SDS011;42646;51.910;7.724;2022-08-19T00:48:57;5.32;;;4.18;;
39264;SDS011;42646;51.910;7.724;2022-08-19T00:51:27;6.28;;;4.45;;
39264;SDS011;42646;51.910;7.724;2022-08-19T00:53:58;6.18;;;4.60;;
39264;SDS011;42646;51.910;7.724;2022-08-19T00:56:28;5.68;;;4.88;;
39264;SDS011;42646;51.910;7.724;2022-08-19T00:58:57;5.10;;;4.40;;
39264;SDS011;42646;51.910;7.724;2022-08-19T01:01:26;6.72;;;4.78;;
39264;SDS011;42646;51.910;7.724;2022-08-19T01:03:54;6.28;;;5.28;;
39264;SDS011;42646;51.910;7.724;2022-08-19T01:06:24;6.68;;;5.43;;
39264;SDS011;42646;51.910;7.724;2022-08-19T01:08:52;7.72;;;5.07;;
39264;SDS011;42646;51.910;7.724;2022-08-19T01:11:21;6.50;;;5.00;;
39264;SDS011;42646;51.910;7.724;2022-08-19T01:13:50;5.88;;;5.18;;
39264;SDS011;42646;51.910;7.724;2022-08-19T01:16:20;6.63;;;4.67;;
39264;SDS011;42646;51.910;7.724;2022-08-19T01:18:51;5.38;;;4.28;;
39264;SDS011;42646;51.910;7.724;2022-08-19T01:21:21;5.65;;;4.68;;
39264;SDS011;42646;51.910;7.724;2022-08-19T01:23:54;6.68;;;5.30;;
39264;SDS011;42646;51.910;7.724;2022-08-19T01:26:23;7.90;;;5.47;;
39264;SDS011;42646;51.910;7.724;2022-08-19T01:28:52;5.95;;;5.15;;
39264;SDS011;42646;51.910;7.724;2022-08-19T01:31:27;6.85;;;5.00;;
39264;SDS011;42646;51.910;7.724;2022-08-19T01:36:27;6.07;;;4.97;;
39264;SDS011;42646;51.910;7.724;2022-08-19T01:38:59;7.33;;;5.53;;
39264;SDS011;42646;51.910;7.724;2022-08-19T01:41:28;5.65;;;4.60;;
39264;SDS011;42646;51.910;7.724;2022-08-19T01:43:55;7.25;;;4.90;;
39264;SDS011;42646;51.910;7.724;2022-08-19T01:46:43;6.40;;;5.68;;
39264;SDS011;42646;51.910;7.724;2022-08-19T01:49:11;7.65;;;5.47;;
39264;SDS011;42646;51.910;7.724;2022-08-19T01:51:39;8.57;;;5.70;;
39264;SDS011;42646;51.910;7.724;2022-08-19T01:54:09;8.10;;;5.80;;
39264;SDS011;42646;51.910;7.724;2022-08-19T01:56:37;7.00;;;5.45;;
39264;SDS011;42646;51.910;7.724;2022-08-19T01:59:06;7.22;;;5.63;;
39264;SDS011;42646;51.910;7.724;2022-08-19T02:01:37;6.72;;;5.68;;
39264;SDS011;42646;51.910;7.724;2022-08-19T02:04:05;7.20;;;6.18;;
39264;SDS011;42646;51.910;7.724;2022-08-19T02:06:32;6.60;;;5.57;;
39264;SDS011;42646;51.910;7.724;2022-08-19T02:09:01;6.40;;;5.15;;
39264;SDS011;42646;51.910;7.724;2022-08-19T02:11:31;7.35;;;5.35;;
39264;SDS011;42646;51.910;7.724;2022-08-19T02:14:02;6.03;;;4.90;;
39264;SDS011;42646;51.910;7.724;2022-08-19T02:16:32;6.78;;;5.00;;
39264;SDS011;42646;51.910;7.724;2022-08-19T02:19:00;7.18;;;5.38;;
39264;SDS011;42646;51.910;7.724;2022-08-19T02:21:28;6.80;;;5.45;;
39264;SDS011;42646;51.910;7.724;2022-08-19T02:23:56;6.55;;;5.35;;
39264;SDS011;42646;51.910;7.724;2022-08-19T02:26:25;6.90;;;5.10;;
39264;SDS011;42646;51.910;7.724;2022-08-19T02:28:56;6.43;;;5.55;;
39264;SDS011;42646;51.910;7.724;2022-08-19T02:31:25;6.38;;;5.00;;
39264;SDS011;42646;51.910;7.724;2022-08-19T02:33:54;6.07;;;4.95;;
39264;SDS011;42646;51.910;7.724;2022-08-19T02:36:23;6.40;;;5.10;;
39264;SDS011;42646;51.910;7.724;2022-08-19T02:38:52;7.15;;;5.47;;
39264;SDS011;42646;51.910;7.724;2022-08-19T02:41:21;7.22;;;5.82;;
39264;SDS011;42646;51.910;7.724;2022-08-19T02:43:52;6.75;;;5.45;;
39264;SDS011;42646;51.910;7.724;2022-08-19T02:46:41;6.47;;;5.40;;
39264;SDS011;42646;51.910;7.724;2022-08-19T02:49:10;7.20;;;5.40;;
39264;SDS011;42646;51.910;7.724;2022-08-19T02:51:43;6.63;;;5.35;;
39264;SDS011;42646;51.910;7.724;2022-08-19T02:54:12;8.18;;;5.40;;
39264;SDS011;42646;51.910;7.724;2022-08-19T02:56:42;6.10;;;4.95;;
39264;SDS011;42646;51.910;7.724;2022-08-19T02:59:10;7.95;;;5.03;;
39264;SDS011;42646;51.910;7.724;2022-08-19T03:01:39;7.60;;;5.53;;
39264;SDS011;42646;51.910;7.724;2022-08-19T03:04:10;7.88;;;5.80;;
39264;SDS011;42646;51.910;7.724;2022-08-19T03:06:39;7.95;;;6.70;;
39264;SDS011;42646;51.910;7.724;2022-08-19T03:09:09;7.57;;;5.75;;
39264;SDS011;42646;51.910;7.724;2022-08-19T03:11:37;6.28;;;5.63;;
39264;SDS011;42646;51.910;7.724;2022-08-19T03:14:07;8.35;;;5.85;;
39264;SDS011;42646;51.910;7.724;2022-08-19T03:16:39;7.28;;;5.97;;
39264;SDS011;42646;51.910;7.724;2022-08-19T03:19:11;7.40;;;6.13;;
39264;SDS011;42646;51.910;7.724;2022-08-19T03:21:39;8.18;;;6.90;;
39264;SDS011;42646;51.910;7.724;2022-08-19T03:24:07;9.18;;;7.10;;
39264;SDS011;42646;51.910;7.724;2022-08-19T03:26:38;10.18;;;7.68;;
39264;SDS011;42646;51.910;7.724;2022-08-19T03:29:06;8.77;;;7.60;;
39264;SDS011;42646;51.910;7.724;2022-08-19T03:31:36;10.85;;;7.57;;
39264;SDS011;42646;51.910;7.724;2022-08-19T03:34:13;9.32;;;7.45;;
39264;SDS011;42646;51.910;7.724;2022-08-19T03:36:44;9.50;;;6.68;;
39264;SDS011;42646;51.910;7.724;2022-08-19T03:39:13;7.78;;;6.88;;
39264;SDS011;42646;51.910;7.724;2022-08-19T03:41:42;9.02;;;7.05;;
39264;SDS011;42646;51.910;7.724;2022-08-19T03:44:13;9.18;;;6.95;;
39264;SDS011;42646;51.910;7.724;2022-08-19T03:46:44;7.82;;;6.55;;
39264;SDS011;42646;51.910;7.724;2022-08-19T03:49:15;8.77;;;7.05;;
39264;SDS011;42646;51.910;7.724;2022-08-19T03:51:45;9.05;;;7.00;;
39264;SDS011;42646;51.910;7.724;2022-08-19T03:54:15;8.40;;;7.28;;
39264;SDS011;42646;51.910;7.724;2022-08-19T03:56:45;8.35;;;6.75;;
39264;SDS011;42646;51.910;7.724;2022-08-19T03:59:16;7.63;;;6.80;;
39264;SDS011;42646;51.910;7.724;2022-08-19T04:01:46;9.55;;;7.18;;
39264;SDS011;42646;51.910;7.724;2022-08-19T04:04:15;7.65;;;6.22;;
39264;SDS011;42646;51.910;7.724;2022-08-19T04:06:45;8.23;;;6.97;;
39264;SDS011;42646;51.910;7.724;2022-08-19T04:09:13;8.90;;;6.97;;
39264;SDS011;42646;51.910;7.724;2022-08-19T04:11:41;8.45;;;6.50;;
39264;SDS011;42646;51.910;7.724;2022-08-19T04:14:11;8.00;;;6.30;;
39264;SDS011;42646;51.910;7.724;2022-08-19T04:16:40;9.55;;;6.80;;
39264;SDS011;42646;51.910;7.724;2022-08-19T04:19:10;8.27;;;6.85;;
39264;SDS011;42646;51.910;7.724;2022-08-19T04:21:39;8.90;;;7.10;;
39264;SDS011;42646;51.910;7.724;2022-08-19T04:24:10;9.23;;;7.47;;
39264;SDS011;42646;51.910;7.724;2022-08-19T04:26:38;10.25;;;7.93;;
39264;SDS011;42646;51.910;7.724;2022-08-19T04:29:07;8.80;;;7.50;;
39264;SDS011;42646;51.910;7.724;2022-08-19T04:34:07;7.57;;;6.50;;
39264;SDS011;42646;51.910;7.724;2022-08-19T04:36:37;8.85;;;6.35;;
39264;SDS011;42646;51.910;7.724;2022-08-19T04:39:09;8.35;;;6.75;;
39264;SDS011;42646;51.910;7.724;2022-08-19T04:41:39;7.50;;;6.20;;
39264;SDS011;42646;51.910;7.724;2022-08-19T04:44:24;9.65;;;7.50;;
39264;SDS011;42646;51.910;7.724;2022-08-19T04:46:52;8.63;;;7.43;;
39264;SDS011;42646;51.910;7.724;2022-08-19T04:49:20;9.73;;;7.10;;
39264;SDS011;42646;51.910;7.724;2022-08-19T04:51:52;9.45;;;7.60;;
39264;SDS011;42646;51.910;7.724;2022-08-19T04:54:21;8.73;;;7.30;;
39264;SDS011;42646;51.910;7.724;2022-08-19T04:57:05;9.30;;;7.18;;
39264;SDS011;42646;51.910;7.724;2022-08-19T04:59:34;8.02;;;6.70;;
39264;SDS011;42646;51.910;7.724;2022-08-19T05:02:03;8.48;;;6.90;;
39264;SDS011;42646;51.910;7.724;2022-08-19T05:04:31;8.10;;;6.75;;
39264;SDS011;42646;51.910;7.724;2022-08-19T05:07:01;7.60;;;6.80;;
39264;SDS011;42646;51.910;7.724;2022-08-19T05:09:28;8.23;;;6.82;;
39264;SDS011;42646;51.910;7.724;2022-08-19T05:12:17;8.57;;;6.95;;
39264;SDS011;42646;51.910;7.724;2022-08-19T05:14:45;8.93;;;7.57;;
39264;SDS011;42646;51.910;7.724;2022-08-19T05:17:15;9.23;;;7.30;;
39264;SDS011;42646;51.910;7.724;2022-08-19T05:19:53;9.55;;;7.53;;
39264;SDS011;42646;51.910;7.724;2022-08-19T05:22:39;8.48;;;6.95;;
39264;SDS011;42646;51.910;7.724;2022-08-19T05:25:09;9.05;;;7.50;;
39264;SDS011;42646;51.910;7.724;2022-08-19T05:27:39;10.27;;;7.38;;
39264;SDS011;42646;51.910;7.724;2022-08-19T05:30:09;9.35;;;7.45;;
39264;SDS011;42646;51.910;7.724;2022-08-19T05:32:37;8.15;;;6.65;;
39264;SDS011;42646;51.910;7.724;2022-08-19T05:35:06;7.60;;;6.80;;
39264;SDS011;42646;51.910;7.724;2022-08-19T05:37:35;8.82;;;6.90;;
39264;SDS011;42646;51.910;7.724;2022-08-19T05:40:05;10.05;;;7.32;;
39264;SDS011;42646;51.910;7.724;2022-08-19T05:42:33;8.73;;;7.07;;
39264;SDS011;42646;51.910;7.724;2022-08-19T05:45:01;6.97;;;5.95;;
39264;SDS011;42646;51.910;7.724;2022-08-19T05:47:29;8.35;;;6.38;;
39264;SDS011;42646;51.910;7.724;2022-08-19T05:49:58;8.65;;;6.90;;
39264;SDS011;42646;51.910;7.724;2022-08-19T05:54:58;8.85;;;7.15;;
39264;SDS011;42646;51.910;7.724;2022-08-19T05:57:27;9.80;;;8.18;;
39264;SDS011;42646;51.910;7.724;2022-08-19T05:59:55;10.43;;;8.55;;
39264;SDS011;42646;51.910;7.724;2022-08-19T06:02:24;11.45;;;9.07;;
39264;SDS011;42646;51.910;7.724;2022-08-19T06:04:52;10.82;;;8.95;;
39264;SDS011;42646;51.910;7.724;2022-08-19T06:07:20;10.93;;;9.48;;
39264;SDS011;42646;51.910;7.724;2022-08-19T06:09:47;12.35;;;10.25;;
39264;SDS011;42646;51.910;7.724;2022-08-19T06:12:25;13.75;;;10.70;;
39264;SDS011;42646;51.910;7.724;2022-08-19T06:14:58;12.18;;;10.23;;
39264;SDS011;42646;51.910;7.724;2022-08-19T06:17:27;11.93;;;9.90;;
39264;SDS011;42646;51.910;7.724;2022-08-19T06:19:56;13.73;;;10.63;;
39264;SDS011;42646;51.910;7.724;2022-08-19T06:22:24;11.88;;;9.77;;
39264;SDS011;42646;51.910;7.724;2022-08-19T06:24:52;10.65;;;9.55;;
39264;SDS011;42646;51.910;7.724;2022-08-19T06:27:20;11.00;;;9.32;;
39264;SDS011;42646;51.910;7.724;2022-08-19T06:29:50;11.65;;;10.02;;
39264;SDS011;42646;51.910;7.724;2022-08-19T06:32:17;12.07;;;9.70;;
39264;SDS011;42646;51.910;7.724;2022-08-19T06:34:46;14.50;;;10.32;;
39264;SDS011;42646;51.910;7.724;2022-08-19T06:37:13;12.93;;;10.77;;
39264;SDS011;42646;51.910;7.724;2022-08-19T06:39:42;14.13;;;10.45;;
39264;SDS011;42646;51.910;7.724;2022-08-19T06:42:11;13.45;;;10.38;;
39264;SDS011;42646;51.910;7.724;2022-08-19T06:44:44;12.35;;;10.35;;
39264;SDS011;42646;51.910;7.724;2022-08-19T06:47:17;11.63;;;10.03;;
39264;SDS011;42646;51.910;7.724;2022-08-19T06:49:54;13.55;;;9.80;;
39264;SDS011;42646;51.910;7.724;2022-08-19T06:52:28;11.35;;;8.93;;
39264;SDS011;42646;51.910;7.724;2022-08-19T06:54:59;12.50;;;9.33;;
39264;SDS011;42646;51.910;7.724;2022-08-19T06:57:31;11.65;;;8.80;;
39264;SDS011;42646;51.910;7.724;2022-08-19T06:59:59;10.45;;;7.82;;
39264;SDS011;42646;51.910;7.724;2022-08-19T07:02:29;9.20;;;7.57;;
39264;SDS011;42646;51.910;7.724;2022-08-19T07:04:56;9.02;;;7.60;;
39264;SDS011;42646;51.910;7.724;2022-08-19T07:07:24;11.40;;;8.30;;
39264;SDS011;42646;51.910;7.724;2022-08-19T07:09:52;9.43;;;8.13;;
39264;SDS011;42646;51.910;7.724;2022-08-19T07:12:26;9.52;;;7.43;;
39264;SDS011;42646;51.910;7.724;2022-08-19T07:14:56;8.48;;;6.68;;
39264;SDS011;42646;51.910;7.724;2022-08-19T07:17:25;8.10;;;5.53;;
39264;SDS011;42646;51.910;7.724;2022-08-19T07:19:54;6.65;;;5.15;;
39264;SDS011;42646;51.910;7.724;2022-08-19T07:22:22;6.85;;;5.65;;
39264;SDS011;42646;51.910;7.724;2022-08-19T07:24:50;5.05;;;4.18;;
39264;SDS011;42646;51.910;7.724;2022-08-19T07:27:17;5.68;;;4.75;;
39264;SDS011;42646;51.910;7.724;2022-08-19T07:29:50;6.10;;;5.10;;
39264;SDS011;42646;51.910;7.724;2022-08-19T07:32:23;6.40;;;5.20;;
39264;SDS011;42646;51.910;7.724;2022-08-19T07:34:52;8.00;;;5.50;;
39264;SDS011;42646;51.910;7.724;2022-08-19T07:37:21;7.35;;;5.70;;
39264;SDS011;42646;51.910;7.724;2022-08-19T07:39:48;9.02;;;6.00;;
39264;SDS011;42646;51.910;7.724;2022-08-19T07:42:16;8.10;;;5.65;;
39264;SDS011;42646;51.910;7.724;2022-08-19T07:44:47;7.97;;;5.95;;
39264;SDS011;42646;51.910;7.724;2022-08-19T07:47:16;8.65;;;6.72;;
39264;SDS011;42646;51.910;7.724;2022-08-19T07:50:07;8.48;;;6.15;;
39264;SDS011;42646;51.910;7.724;2022-08-19T07:52:39;9.40;;;6.18;;
39264;SDS011;42646;51.910;7.724;2022-08-19T07:55:07;9.13;;;6.45;;
39264;SDS011;42646;51.910;7.724;2022-08-19T07:57:56;6.40;;;5.10;;
39264;SDS011;42646;51.910;7.724;2022-08-19T08:00:24;8.10;;;6.25;;
39264;SDS011;42646;51.910;7.724;2022-08-19T08:02:52;12.75;;;8.93;;
39264;SDS011;42646;51.910;7.724;2022-08-19T08:05:21;10.73;;;7.95;;
39264;SDS011;42646;51.910;7.724;2022-08-19T08:08:10;11.00;;;6.93;;
39264;SDS011;42646;51.910;7.724;2022-08-19T08:10:57;9.68;;;6.38;;
39264;SDS011;42646;51.910;7.724;2022-08-19T08:13:25;11.05;;;6.95;;
39264;SDS011;42646;51.910;7.724;2022-08-19T08:15:54;8.45;;;5.80;;
39264;SDS011;42646;51.910;7.724;2022-08-19T08:18:22;7.47;;;6.03;;
39264;SDS011;42646;51.910;7.724;2022-08-19T08:20:53;8.70;;;5.87;;
39264;SDS011;42646;51.910;7.724;2022-08-19T08:23:23;9.98;;;7.30;;
39264;SDS011;42646;51.910;7.724;2022-08-19T08:25:54;8.98;;;5.00;;
39264;SDS011;42646;51.910;7.724;2022-08-19T08:28:24;7.82;;;5.95;;
39264;SDS011;42646;51.910;7.724;2022-08-19T08:30:55;6.80;;;4.85;;
39264;SDS011;42646;51.910;7.724;2022-08-19T08:33:24;9.85;;;6.40;;
39264;SDS011;42646;51.910;7.724;2022-08-19T08:36:00;7.07;;;5.85;;
39264;SDS011;42646;51.910;7.724;2022-08-19T08:38:30;8.57;;;6.15;;
39264;SDS011;42646;51.910;7.724;2022-08-19T08:41:06;7.25;;;5.63;;
39264;SDS011;42646;51.910;7.724;2022-08-19T08:43:46;8.55;;;6.40;;
39264;SDS011;42646;51.910;7.724;2022-08-19T08:46:19;8.30;;;5.55;;
39264;SDS011;42646;51.910;7.724;2022-08-19T08:48:58;9.48;;;5.70;;
39264;SDS011;42646;51.910;7.724;2022-08-19T08:51:32;7.60;;;5.50;;
39264;SDS011;42646;51.910;7.724;2022-08-19T08:54:04;6.75;;;4.55;;
39264;SDS011;42646;51.910;7.724;2022-08-19T08:56:37;7.40;;;5.25;;
39264;SDS011;42646;51.910;7.724;2022-08-19T08:59:06;5.97;;;4.93;;
39264;SDS011;42646;51.910;7.724;2022-08-19T09:01:39;8.30;;;5.93;;
39264;SDS011;42646;51.910;7.724;2022-08-19T09:04:07;5.55;;;4.70;;
39264;SDS011;42646;51.910;7.724;2022-08-19T09:06:36;7.18;;;4.80;;
39264;SDS011;42646;51.910;7.724;2022-08-19T09:09:12;7.28;;;4.97;;
39264;SDS011;42646;51.910;7.724;2022-08-19T09:11:48;6.97;;;5.28;;
39264;SDS011;42646;51.910;7.724;2022-08-19T09:14:32;6.10;;;4.55;;
39264;SDS011;42646;51.910;7.724;2022-08-19T09:17:17;5.95;;;4.43;;
39264;SDS011;42646;51.910;7.724;2022-08-19T09:19:57;5.75;;;4.70;;
39264;SDS011;42646;51.910;7.724;2022-08-19T09:22:30;6.75;;;4.50;;
39264;SDS011;42646;51.910;7.724;2022-08-19T09:24:59;7.00;;;4.07;;
39264;SDS011;42646;51.910;7.724;2022-08-19T09:27:28;6.43;;;4.50;;
39264;SDS011;42646;51.910;7.724;2022-08-19T09:30:09;7.23;;;4.10;;
39264;SDS011;42646;51.910;7.724;2022-08-19T09:32:41;7.15;;;4.80;;
39264;SDS011;42646;51.910;7.724;2022-08-19T09:35:10;7.07;;;5.70;;
39264;SDS011;42646;51.910;7.724;2022-08-19T09:37:38;5.32;;;4.40;;
39264;SDS011;42646;51.910;7.724;2022-08-19T09:40:10;6.45;;;4.68;;
39264;SDS011;42646;51.910;7.724;2022-08-19T09:42:39;6.93;;;5.40;;
39264;SDS011;42646;51.910;7.724;2022-08-19T09:45:16;6.72;;;4.90;;
39264;SDS011;42646;51.910;7.724;2022-08-19T09:47:46;6.93;;;4.70;;
39264;SDS011;42646;51.910;7.724;2022-08-19T09:50:15;5.85;;;4.72;;
39264;SDS011;42646;51.910;7.724;2022-08-19T09:52:44;7.20;;;5.68;;
39264;SDS011;42646;51.910;7.724;2022-08-19T09:55:24;8.48;;;6.20;;
39264;SDS011;42646;51.910;7.724;2022-08-19T09:57:58;8.52;;;6.63;;
39264;SDS011;42646;51.910;7.724;2022-08-19T10:00:27;7.80;;;5.55;;
39264;SDS011;42646;51.910;7.724;2022-08-19T10:02:56;6.10;;;4.50;;
39264;SDS011;42646;51.910;7.724;2022-08-19T10:05:24;5.80;;;4.20;;
39264;SDS011;42646;51.910;7.724;2022-08-19T10:08:09;6.18;;;3.78;;
39264;SDS011;42646;51.910;7.724;2022-08-19T10:10:40;5.75;;;4.00;;
39264;SDS011;42646;51.910;7.724;2022-08-19T10:13:12;4.50;;;3.80;;
39264;SDS011;42646;51.910;7.724;2022-08-19T10:15:41;4.40;;;3.55;;
39264;SDS011;42646;51.910;7.724;2022-08-19T10:18:13;4.85;;;3.60;;
39264;SDS011;42646;51.910;7.724;2022-08-19T10:20:42;6.30;;;3.85;;
39264;SDS011;42646;51.910;7.724;2022-08-19T10:23:16;5.07;;;3.30;;
39264;SDS011;42646;51.910;7.724;2022-08-19T10:25:48;5.47;;;3.83;;
39264;SDS011;42646;51.910;7.724;2022-08-19T10:28:16;4.60;;;3.67;;
39264;SDS011;42646;51.910;7.724;2022-08-19T10:30:45;4.03;;;2.97;;
39264;SDS011;42646;51.910;7.724;2022-08-19T10:33:13;4.78;;;3.53;;
39264;SDS011;42646;51.910;7.724;2022-08-19T10:36:02;5.00;;;3.33;;
39264;SDS011;42646;51.910;7.724;2022-08-19T10:38:31;4.88;;;3.72;;
39264;SDS011;42646;51.910;7.724;2022-08-19T10:41:07;5.35;;;3.55;;
39264;SDS011;42646;51.910;7.724;2022-08-19T10:43:36;4.90;;;3.60;;
39264;SDS011;42646;51.910;7.724;2022-08-19T10:46:06;4.57;;;3.78;;
39264;SDS011;42646;51.910;7.724;2022-08-19T10:48:39;7.60;;;3.97;;
39264;SDS011;42646;51.910;7.724;2022-08-19T10:51:07;4.55;;;3.58;;
39264;SDS011;42646;51.910;7.724;2022-08-19T10:53:53;4.30;;;3.47;;
39264;SDS011;42646;51.910;7.724;2022-08-19T10:56:23;4.78;;;3.70;;
39264;SDS011;42646;51.910;7.724;2022-08-19T10:59:09;5.32;;;3.55;;
39264;SDS011;42646;51.910;7.724;2022-08-19T11:01:40;4.40;;;3.38;;
39264;SDS011;42646;51.910;7.724;2022-08-19T11:04:08;4.93;;;3.65;;
39264;SDS011;42646;51.910;7.724;2022-08-19T11:06:37;4.63;;;3.40;;
39264;SDS011;42646;51.910;7.724;2022-08-19T11:09:07;5.70;;;3.90;;
39264;SDS011;42646;51.910;7.724;2022-08-19T11:11:37;4.25;;;3.40;;
39264;SDS011;42646;51.910;7.724;2022-08-19T11:14:07;4.03;;;3.25;;
39264;SDS011;42646;51.910;7.724;2022-08-19T11:16:36;6.25;;;3.50;;
39264;SDS011;42646;51.910;7.724;2022-08-19T11:19:05;5.43;;;3.55;;
39264;SDS011;42646;51.910;7.724;2022-08-19T11:21:35;4.95;;;3.70;;
39264;SDS011;42646;51.910;7.724;2022-08-19T11:24:05;4.47;;;3.40;;
39264;SDS011;42646;51.910;7.724;2022-08-19T11:26:35;4.15;;;3.22;;
39264;SDS011;42646;51.910;7.724;2022-08-19T11:29:06;4.65;;;3.20;;
39264;SDS011;42646;51.910;7.724;2022-08-19T11:31:38;5.20;;;3.40;;
39264;SDS011;42646;51.910;7.724;2022-08-19T11:34:09;4.45;;;3.33;;
39264;SDS011;42646;51.910;7.724;2022-08-19T11:36:43;4.20;;;3.13;;
39264;SDS011;42646;51.910;7.724;2022-08-19T11:39:14;4.25;;;3.00;;
39264;SDS011;42646;51.910;7.724;2022-08-19T11:41:45;4.55;;;2.95;;
39264;SDS011;42646;51.910;7.724;2022-08-19T11:44:12;4.05;;;2.88;;
39264;SDS011;42646;51.910;7.724;2022-08-19T11:46:42;4.63;;;2.97;;
39264;SDS011;42646;51.910;7.724;2022-08-19T11:49:12;4.32;;;3.08;;
39264;SDS011;42646;51.910;7.724;2022-08-19T11:51:41;5.32;;;3.50;;
39264;SDS011;42646;51.910;7.724;2022-08-19T11:54:10;5.00;;;3.83;;
39264;SDS011;42646;51.910;7.724;2022-08-19T11:56:39;4.53;;;3.97;;
39264;SDS011;42646;51.910;7.724;2022-08-19T11:59:09;5.72;;;3.75;;
39264;SDS011;42646;51.910;7.724;2022-08-19T12:01:40;5.45;;;3.90;;
39264;SDS011;42646;51.910;7.724;2022-08-19T12:04:08;5.28;;;3.97;;
39264;SDS011;42646;51.910;7.724;2022-08-19T12:06:38;6.03;;;3.50;;
39264;SDS011;42646;51.910;7.724;2022-08-19T12:09:08;4.25;;;3.60;;
39264;SDS011;42646;51.910;7.724;2022-08-19T12:11:37;5.20;;;3.80;;
39264;SDS011;42646;51.910;7.724;2022-08-19T12:14:05;5.22;;;3.88;;
39264;SDS011;42646;51.910;7.724;2022-08-19T12:16:41;5.00;;;3.83;;
39264;SDS011;42646;51.910;7.724;2022-08-19T12:19:17;5.25;;;4.32;;
39264;SDS011;42646;51.910;7.724;2022-08-19T12:21:47;5.45;;;3.95;;
39264;SDS011;42646;51.910;7.724;2022-08-19T12:24:16;5.18;;;4.18;;
39264;SDS011;42646;51.910;7.724;2022-08-19T12:26:48;5.50;;;4.15;;
39264;SDS011;42646;51.910;7.724;2022-08-19T12:29:19;9.98;;;4.70;;
39264;SDS011;42646;51.910;7.724;2022-08-19T12:31:51;6.38;;;5.20;;
39264;SDS011;42646;51.910;7.724;2022-08-19T12:34:19;12.57;;;5.25;;
39264;SDS011;42646;51.910;7.724;2022-08-19T12:36:47;6.78;;;4.70;;
39264;SDS011;42646;51.910;7.724;2022-08-19T12:39:15;6.07;;;5.00;;
39264;SDS011;42646;51.910;7.724;2022-08-19T12:41:43;10.15;;;6.25;;
39264;SDS011;42646;51.910;7.724;2022-08-19T12:44:20;6.72;;;5.93;;
39264;SDS011;42646;51.910;7.724;2022-08-19T12:46:56;7.55;;;6.07;;
39264;SDS011;42646;51.910;7.724;2022-08-19T12:49:24;7.63;;;6.50;;
39264;SDS011;42646;51.910;7.724;2022-08-19T12:52:12;8.13;;;6.82;;
39264;SDS011;42646;51.910;7.724;2022-08-19T12:54:47;7.13;;;6.05;;
39264;SDS011;42646;51.910;7.724;2022-08-19T12:57:20;7.45;;;6.03;;
39264;SDS011;42646;51.910;7.724;2022-08-19T12:59:57;8.05;;;5.90;;
39264;SDS011;42646;51.910;7.724;2022-08-19T13:02:26;6.53;;;5.70;;
39264;SDS011;42646;51.910;7.724;2022-08-19T13:04:54;6.93;;;5.38;;
39264;SDS011;42646;51.910;7.724;2022-08-19T13:07:21;6.82;;;5.30;;
39264;SDS011;42646;51.910;7.724;2022-08-19T13:09:50;7.22;;;5.30;;
39264;SDS011;42646;51.910;7.724;2022-08-19T13:12:18;6.15;;;5.40;;
39264;SDS011;42646;51.910;7.724;2022-08-19T13:14:50;5.95;;;4.90;;
39264;SDS011;42646;51.910;7.724;2022-08-19T13:17:18;6.32;;;4.90;;
39264;SDS011;42646;51.910;7.724;2022-08-19T13:19:47;7.15;;;4.82;;
39264;SDS011;42646;51.910;7.724;2022-08-19T13:22:15;5.22;;;4.70;;
39264;SDS011;42646;51.910;7.724;2022-08-19T13:24:43;5.55;;;4.78;;
39264;SDS011;42646;51.910;7.724;2022-08-19T13:27:12;6.15;;;4.90;;
39264;SDS011;42646;51.910;7.724;2022-08-19T13:29:41;6.28;;;4.43;;
39264;SDS011;42646;51.910;7.724;2022-08-19T13:32:26;5.25;;;4.68;;
39264;SDS011;42646;51.910;7.724;2022-08-19T13:35:15;6.75;;;4.75;;
39264;SDS011;42646;51.910;7.724;2022-08-19T13:37:43;5.38;;;4.32;;
39264;SDS011;42646;51.910;7.724;2022-08-19T13:40:12;5.35;;;4.47;;
39264;SDS011;42646;51.910;7.724;2022-08-19T13:42:45;5.18;;;4.43;;
39264;SDS011;42646;51.910;7.724;2022-08-19T13:45:14;5.63;;;4.53;;
39264;SDS011;42646;51.910;7.724;2022-08-19T13:47:46;5.90;;;4.63;;
39264;SDS011;42646;51.910;7.724;2022-08-19T13:50:18;4.55;;;4.05;;
39264;SDS011;42646;51.910;7.724;2022-08-19T13:52:48;5.10;;;4.03;;
39264;SDS011;42646;51.910;7.724;2022-08-19T13:55:16;5.78;;;4.60;;
39264;SDS011;42646;51.910;7.724;2022-08-19T13:57:50;6.65;;;4.78;;
39264;SDS011;42646;51.910;7.724;2022-08-19T14:00:20;5.40;;;4.80;;
39264;SDS011;42646;51.910;7.724;2022-08-19T14:02:50;6.07;;;5.00;;
39264;SDS011;42646;51.910;7.724;2022-08-19T14:05:20;5.93;;;5.05;;
39264;SDS011;42646;51.910;7.724;2022-08-19T14:07:48;5.55;;;4.78;;
39264;SDS011;42646;51.910;7.724;2022-08-19T14:10:16;6.18;;;4.70;;
39264;SDS011;42646;51.910;7.724;2022-08-19T14:12:45;5.50;;;4.65;;
39264;SDS011;42646;51.910;7.724;2022-08-19T14:15:13;6.03;;;5.43;;
39264;SDS011;42646;51.910;7.724;2022-08-19T14:17:43;5.72;;;5.18;;
39264;SDS011;42646;51.910;7.724;2022-08-19T14:20:13;5.20;;;4.50;;
39264;SDS011;42646;51.910;7.724;2022-08-19T14:22:45;5.78;;;5.28;;
39264;SDS011;42646;51.910;7.724;2022-08-19T14:25:15;5.80;;;4.80;;
39264;SDS011;42646;51.910;7.724;2022-08-19T14:27:46;5.40;;;4.90;;
39264;SDS011;42646;51.910;7.724;2022-08-19T14:30:15;5.43;;;4.88;;
39264;SDS011;42646;51.910;7.724;2022-08-19T14:32:44;5.78;;;5.05;;
39264;SDS011;42646;51.910;7.724;2022-08-19T14:35:13;5.30;;;4.60;;
39264;SDS011;42646;51.910;7.724;2022-08-19T14:37:42;5.78;;;4.80;;
39264;SDS011;42646;51.910;7.724;2022-08-19T14:40:13;5.85;;;5.18;;
39264;SDS011;42646;51.910;7.724;2022-08-19T14:42:42;5.60;;;4.50;;
39264;SDS011;42646;51.910;7.724;2022-08-19T14:45:11;5.40;;;4.90;;
39264;SDS011;42646;51.910;7.724;2022-08-19T14:47:39;5.75;;;5.10;;
39264;SDS011;42646;51.910;7.724;2022-08-19T14:50:08;5.28;;;4.78;;
39264;SDS011;42646;51.910;7.724;2022-08-19T14:52:45;5.25;;;4.75;;
39264;SDS011;42646;51.910;7.724;2022-08-19T14:55:14;5.80;;;4.93;;
39264;SDS011;42646;51.910;7.724;2022-08-19T14:57:43;5.35;;;4.82;;
39264;SDS011;42646;51.910;7.724;2022-08-19T15:00:12;5.35;;;4.85;;
39264;SDS011;42646;51.910;7.724;2022-08-19T15:02:41;5.50;;;4.90;;
39264;SDS011;42646;51.910;7.724;2022-08-19T15:05:10;5.55;;;4.80;;
39264;SDS011;42646;51.910;7.724;2022-08-19T15:07:38;5.70;;;4.95;;
39264;SDS011;42646;51.910;7.724;2022-08-19T15:10:09;5.32;;;4.80;;
39264;SDS011;42646;51.910;7.724;2022-08-19T15:12:38;6.80;;;4.93;;
39264;SDS011;42646;51.910;7.724;2022-08-19T15:15:09;6.63;;;4.97;;
39264;SDS011;42646;51.910;7.724;2022-08-19T15:17:40;5.53;;;4.65;;